Time;durP1;ratioP1;P1;durP2;ratioP2;P2;SDS_P1;SDS_P2;PMS_P1;PMS_P2;Temp;Humidity;BMP_temperature;BMP_pressure;BME280_temperature;BME280_humidity;BME280_pressure;Samples;Min_cycle;Max_cycle;Signal;HPM_P1;HPM_P2
2021/08/15 00:01:33;;;;;;;1.35;0.65;;;;;;;18.77;61.10;100180.00;5075160;28;20016;-61
2021/08/15 00:03:58;;;;;;;2.88;0.70;;;;;;;18.78;62.38;100176.22;5075419;28;20024;-61
2021/08/15 00:06:24;;;;;;;2.33;0.47;;;;;;;18.78;60.95;100178.94;5075664;28;20020;-59
2021/08/15 00:08:49;;;;;;;1.52;0.68;;;;;;;18.77;62.35;100168.25;5075797;28;20025;-60
2021/08/15 00:11:14;;;;;;;1.20;0.80;;;;;;;18.77;61.65;100169.09;5075168;28;20024;-61
2021/08/15 00:13:40;;;;;;;1.75;0.43;;;;;;;18.76;62.43;100169.28;5074904;28;20420;-60
2021/08/15 00:16:05;;;;;;;1.75;0.60;;;;;;;18.75;62.44;100165.72;5075238;28;20028;-61
2021/08/15 00:18:31;;;;;;;1.55;0.50;;;;;;;18.75;62.24;100165.72;5075162;28;20103;-60
2021/08/15 00:20:56;;;;;;;4.40;1.27;;;;;;;18.71;62.01;100169.88;5074690;28;20017;-61
2021/08/15 00:23:21;;;;;;;4.22;0.90;;;;;;;18.73;61.80;100162.34;5075832;28;20028;-61
2021/08/15 00:25:47;;;;;;;2.50;0.80;;;;;;;18.72;61.70;100168.84;5074939;28;20024;-61
2021/08/15 00:28:12;;;;;;;1.73;0.55;;;;;;;18.71;61.35;100158.97;5074854;28;20390;-61
2021/08/15 00:30:38;;;;;;;2.03;0.60;;;;;;;18.72;62.76;100166.13;5074856;28;20359;-61
2021/08/15 00:33:03;;;;;;;3.17;0.50;;;;;;;18.72;62.09;100155.22;5074589;28;20035;-61
2021/08/15 00:35:28;;;;;;;1.80;0.85;;;;;;;18.69;62.33;100155.59;5074645;28;20024;-61
2021/08/15 00:37:54;;;;;;;1.60;0.73;;;;;;;18.71;61.42;100152.69;5075167;28;20021;-61
2021/08/15 00:40:19;;;;;;;2.00;0.50;;;;;;;18.70;61.55;100148.28;5075540;28;20029;-61
2021/08/15 00:42:44;;;;;;;2.00;0.75;;;;;;;18.70;62.24;100151.84;5074167;28;20058;-61
2021/08/15 00:45:10;;;;;;;2.35;0.85;;;;;;;18.71;61.98;100148.09;5060028;28;20041;-61
2021/08/15 00:47:36;;;;;;;2.55;0.52;;;;;;;18.67;62.49;100146.78;5034418;28;20040;-60
2021/08/15 00:50:04;;;;;;;1.48;0.60;;;;;;;18.68;62.71;100142.19;5034445;28;20029;-60
2021/08/15 00:52:29;;;;;;;3.25;0.63;;;;;;;18.69;61.95;100144.72;5034625;28;20478;-61
2021/08/15 00:54:59;;;;;;;2.53;0.70;;;;;;;18.68;62.17;100151.19;5034847;28;20036;-61
2021/08/15 00:57:31;;;;;;;2.40;0.75;;;;;;;18.66;61.72;100145.09;4994970;28;20049;-61
2021/08/15 01:00:01;;;;;;;1.67;0.38;;;;;;;18.66;61.99;100144.25;4993783;28;20026;-62
2021/08/15 01:02:27;;;;;;;3.15;0.60;;;;;;;18.66;62.49;100145.09;4995054;28;20472;-61
2021/08/15 01:04:52;;;;;;;3.22;0.95;;;;;;;18.63;62.31;100140.84;4994852;28;20036;-61
2021/08/15 01:07:18;;;;;;;1.55;0.50;;;;;;;18.67;62.75;100146.78;4994901;28;20495;-61
2021/08/15 01:09:43;;;;;;;2.15;0.80;;;;;;;18.67;63.09;100144.06;4993531;28;20026;-61
2021/08/15 01:12:09;;;;;;;1.65;0.63;;;;;;;18.68;62.65;100143.03;4995634;28;20503;-60
2021/08/15 01:14:34;;;;;;;3.20;0.68;;;;;;;18.69;62.87;100138.44;4994928;28;20089;-61
2021/08/15 01:17:00;;;;;;;3.42;1.00;;;;;;;18.66;63.12;100139.66;5009944;28;20028;-61
2021/08/15 01:19:29;;;;;;;2.50;0.50;;;;;;;18.67;62.77;100135.91;5013236;28;20104;-61
2021/08/15 01:21:55;;;;;;;2.30;0.60;;;;;;;18.64;63.01;100130.81;5014409;28;20025;-61
2021/08/15 01:24:20;;;;;;;1.42;0.50;;;;;;;18.64;62.46;100130.81;5014243;28;20032;-61
2021/08/15 01:26:47;;;;;;;1.27;0.82;;;;;;;18.65;63.65;100127.09;5014089;28;20026;-61
2021/08/15 01:29:13;;;;;;;1.73;0.50;;;;;;;18.63;62.97;100118.22;5012798;28;20026;-61
2021/08/15 01:31:38;;;;;;;2.83;0.70;;;;;;;18.66;63.19;100128.75;5013856;28;20041;-61
2021/08/15 01:34:03;;;;;;;2.92;0.90;;;;;;;18.66;61.96;100130.66;5013879;28;20474;-61
2021/08/15 01:36:29;;;;;;;1.70;0.80;;;;;;;18.63;62.34;100129.13;5014200;28;20064;-61
2021/08/15 01:38:54;;;;;;;2.47;0.77;;;;;;;18.63;62.24;100135.41;5013795;28;20046;-60
2021/08/15 01:41:19;;;;;;;1.13;0.50;;;;;;;18.63;62.79;100124.53;5014098;28;20028;-60
2021/08/15 01:43:55;;;;;;;1.05;0.43;;;;;;;18.67;63.28;100130.44;5014321;28;20052;-61
2021/08/15 01:46:24;;;;;;;0.73;0.30;;;;;;;18.63;62.77;100113.63;5030728;28;20029;-61
2021/08/15 01:48:49;;;;;;;2.85;0.50;;;;;;;18.65;62.36;100123.50;5032786;28;20052;-61
2021/08/15 01:51:16;;;;;;;2.90;1.15;;;;;;;18.63;63.29;100113.63;5033495;28;20017;-61
2021/08/15 01:53:42;;;;;;;1.15;0.60;;;;;;;18.61;62.52;100123.00;5033728;28;20108;-60
2021/08/15 01:56:07;;;;;;;2.88;0.88;;;;;;;18.61;63.58;100114.81;5051953;28;20051;-61
2021/08/15 01:58:32;;;;;;;3.13;0.50;;;;;;;18.63;63.10;100112.78;5072721;28;20103;-60
2021/08/15 02:00:59;;;;;;;2.72;0.80;;;;;;;18.61;63.03;100112.94;5053509;28;20053;-61
2021/08/15 02:03:24;;;;;;;2.47;0.57;;;;;;;18.60;63.01;100107.69;5053484;28;20032;-60
2021/08/15 02:05:50;;;;;;;3.15;0.90;;;;;;;18.59;63.56;100106.00;5053069;28;20040;-61
2021/08/15 02:08:16;;;;;;;1.48;0.43;;;;;;;18.59;63.36;100108.72;5053190;28;20107;-60
2021/08/15 02:10:42;;;;;;;2.67;0.55;;;;;;;18.62;62.67;100113.78;5053079;28;20041;-61
2021/08/15 02:13:07;;;;;;;1.92;1.15;;;;;;;18.60;63.43;100096.81;5053216;28;20025;-60
2021/08/15 02:15:33;;;;;;;2.53;0.80;;;;;;;18.60;63.25;100113.13;5053074;28;20021;-60
2021/08/15 02:18:00;;;;;;;2.08;0.75;;;;;;;18.59;62.97;100103.28;5053273;28;20516;-60
2021/08/15 02:20:31;;;;;;;2.33;0.57;;;;;;;18.56;62.50;100111.84;5053100;28;20033;-61
2021/08/15 02:22:57;;;;;;;0.80;0.38;;;;;;;18.57;63.19;100106.19;5053168;28;20029;-61
2021/08/15 02:25:24;;;;;;;1.48;0.52;;;;;;;18.60;63.02;100107.69;5053116;28;20087;-61
2021/08/15 02:27:50;;;;;;;3.00;0.75;;;;;;;18.58;62.73;100104.31;5052678;28;20021;-61
2021/08/15 02:30:18;;;;;;;2.85;0.80;;;;;;;18.58;62.62;100104.31;5035162;28;20059;-61
2021/08/15 02:32:44;;;;;;;2.38;0.50;;;;;;;18.54;62.43;100097.59;5055384;28;20021;-60
2021/08/15 02:35:11;;;;;;;2.05;0.70;;;;;;;18.55;62.75;100105.56;5056837;28;20537;-61
2021/08/15 02:37:38;;;;;;;1.33;0.43;;;;;;;18.56;63.02;100101.78;5057441;28;20025;-60
2021/08/15 02:40:05;;;;;;;0.73;0.40;;;;;;;18.57;63.56;100102.63;5057007;28;20029;-60
2021/08/15 02:42:33;;;;;;;3.75;0.85;;;;;;;18.55;63.17;100099.28;5056813;28;20059;-60
2021/08/15 02:44:59;;;;;;;2.15;0.65;;;;;;;18.52;63.11;100099.66;5054967;28;20020;-61
2021/08/15 02:47:24;;;;;;;3.47;0.75;;;;;;;18.54;63.12;100089.41;5076918;28;20043;-61
2021/08/15 02:49:50;;;;;;;9.80;0.77;;;;;;;18.53;63.59;100093.16;5076499;28;20032;-61
2021/08/15 02:52:15;;;;;;;1.98;0.40;;;;;;;18.53;64.01;100090.44;5076591;28;20024;-61
2021/08/15 02:54:41;;;;;;;2.15;0.70;;;;;;;18.52;62.58;100086.03;5076833;28;20491;-61
2021/08/15 02:57:06;;;;;;;1.27;0.60;;;;;;;18.55;63.08;100088.38;5076609;28;20051;-61
2021/08/15 02:59:38;;;;;;;2.80;0.70;;;;;;;18.54;62.97;100092.13;5076725;28;20119;-60
2021/08/15 03:02:03;;;;;;;2.20;0.70;;;;;;;18.54;62.82;100086.69;5076730;28;20086;-61
2021/08/15 03:04:29;;;;;;;2.78;0.85;;;;;;;18.52;62.53;100083.31;5076866;28;20058;-60
2021/08/15 03:06:54;;;;;;;3.47;0.60;;;;;;;18.54;62.64;100075.81;5074267;28;20039;-60
2021/08/15 03:09:19;;;;;;;2.97;0.70;;;;;;;18.51;62.54;100081.63;5076807;28;20025;-60
2021/08/15 03:11:45;;;;;;;3.13;1.30;;;;;;;18.52;62.64;100088.75;5074170;28;20024;-61
2021/08/15 03:14:10;;;;;;;1.45;0.50;;;;;;;18.51;62.55;100084.34;5076085;28;20028;-60
2021/08/15 03:16:35;;;;;;;1.30;0.38;;;;;;;18.51;62.72;100092.53;5076497;28;20023;-61
2021/08/15 03:19:01;;;;;;;2.03;0.82;;;;;;;18.52;62.87;100083.31;5076380;28;20400;-60
2021/08/15 03:21:29;;;;;;;3.05;0.98;;;;;;;18.52;63.22;100083.31;5076316;28;20554;-61
2021/08/15 03:23:55;;;;;;;2.03;0.80;;;;;;;18.48;62.72;100082.88;5075912;28;20103;-61
2021/08/15 03:26:20;;;;;;;1.83;0.43;;;;;;;18.49;63.18;100081.00;5076213;28;20104;-61
2021/08/15 03:28:46;;;;;;;2.60;1.02;;;;;;;18.49;62.74;100084.56;5076044;28;20423;-61
2021/08/15 03:31:11;;;;;;;0.95;0.50;;;;;;;18.51;62.46;100078.91;5076102;28;20031;-61
2021/08/15 03:33:36;;;;;;;2.50;0.77;;;;;;;18.52;63.35;100072.44;5057962;28;20032;-60
2021/08/15 03:36:02;;;;;;;1.40;0.60;;;;;;;18.51;62.92;100076.19;5076322;28;20359;-61
2021/08/15 03:38:27;;;;;;;3.45;0.93;;;;;;;18.49;63.17;100083.72;5075851;28;20028;-60
2021/08/15 03:40:52;;;;;;;2.85;0.65;;;;;;;18.49;63.02;100078.25;5075813;28;20042;-61
2021/08/15 03:43:18;;;;;;;1.20;0.50;;;;;;;18.49;63.12;100078.25;5074804;28;20028;-60
2021/08/15 03:45:43;;;;;;;3.00;0.80;;;;;;;18.51;63.23;100070.75;5051973;28;20478;-62
2021/08/15 03:48:09;;;;;;;2.55;0.60;;;;;;;18.48;63.31;100082.03;5035537;28;20033;-61
2021/08/15 03:50:34;;;;;;;1.45;0.40;;;;;;;18.46;62.93;100086.78;5035778;28;20542;-61
2021/08/15 03:52:59;;;;;;;2.22;0.60;;;;;;;18.49;62.98;100078.25;5035333;28;20033;-61
2021/08/15 03:55:24;;;;;;;1.10;0.60;;;;;;;18.46;62.60;100082.19;5035381;28;20129;-61
2021/08/15 03:57:50;;;;;;;1.58;0.70;;;;;;;18.46;62.75;100084.06;5035614;28;20049;-60
2021/08/15 04:00:15;;;;;;;1.70;0.50;;;;;;;18.46;63.00;100086.78;5035630;28;20064;-61
2021/08/15 04:02:41;;;;;;;1.65;0.50;;;;;;;19.32;60.58;100074.16;5035669;28;20045;-61
2021/08/15 04:05:07;;;;;;;1.55;0.50;;;;;;;19.91;58.91;100069.19;5035849;28;20104;-61
2021/08/15 04:07:32;;;;;;;1.55;0.40;;;;;;;20.15;58.21;100070.56;5035548;28;20109;-60
2021/08/15 04:09:57;;;;;;;2.25;0.55;;;;;;;20.40;57.46;100062.72;5035183;28;20034;-60
2021/08/15 04:12:23;;;;;;;2.33;0.70;;;;;;;20.53;57.53;100062.81;5035299;28;20478;-60
2021/08/15 04:14:48;;;;;;;1.75;0.60;;;;;;;20.65;57.83;100061.16;5034866;28;20470;-60
2021/08/15 04:17:16;;;;;;;1.10;0.47;;;;;;;20.76;57.32;100053.44;5035247;28;20036;-61
2021/08/15 04:19:42;;;;;;;0.40;0.20;;;;;;;20.84;56.80;100053.25;5034986;28;20350;-60
2021/08/15 04:22:08;;;;;;;1.83;0.50;;;;;;;20.87;56.58;100053.69;5035498;28;20520;-61
2021/08/15 04:24:33;;;;;;;1.73;0.50;;;;;;;20.88;57.10;100049.91;5035341;28;20030;-61
2021/08/15 04:26:58;;;;;;;1.13;0.40;;;;;;;20.95;57.33;100055.38;5035024;28;20043;-61
2021/08/15 04:29:24;;;;;;;0.55;0.30;;;;;;;20.94;57.91;100053.69;5035101;28;20100;-61
2021/08/15 04:31:49;;;;;;;0.98;0.30;;;;;;;20.97;58.50;100050.53;5034687;28;20493;-61
2021/08/15 04:34:14;;;;;;;1.90;0.40;;;;;;;21.02;57.47;100057.06;5035082;28;20454;-61
2021/08/15 04:36:39;;;;;;;1.08;0.40;;;;;;;21.01;58.39;100058.13;5035013;28;20044;-58
2021/08/15 04:39:05;;;;;;;1.55;0.43;;;;;;;21.10;58.47;100058.75;5040457;28;20021;-61
2021/08/15 04:41:30;;;;;;;1.52;0.60;;;;;;;21.10;57.69;100053.28;5046597;28;20040;-60
2021/08/15 04:43:55;;;;;;;2.60;0.43;;;;;;;21.10;57.62;100058.75;5054475;28;20450;-60
2021/08/15 04:46:21;;;;;;;2.10;0.90;;;;;;;21.15;57.39;100053.50;5053344;28;20044;-61
2021/08/15 04:48:46;;;;;;;1.83;0.47;;;;;;;21.13;58.09;100052.03;5036471;28;20071;-61
2021/08/15 04:51:11;;;;;;;1.80;0.40;;;;;;;21.17;57.78;100059.63;5036723;28;20029;-58
2021/08/15 04:53:37;;;;;;;1.58;0.50;;;;;;;21.21;57.00;100049.09;5055000;28;20025;-61
2021/08/15 04:56:03;;;;;;;1.15;0.57;;;;;;;21.26;57.92;100041.16;5054835;28;20565;-61
2021/08/15 04:58:29;;;;;;;1.45;0.50;;;;;;;21.27;57.59;100038.19;5054314;28;20025;-61
2021/08/15 05:00:54;;;;;;;1.83;0.60;;;;;;;21.29;57.13;100047.03;5054022;28;20382;-61
2021/08/15 05:03:19;;;;;;;1.65;0.57;;;;;;;21.28;57.68;100045.34;5054522;28;20047;-61
2021/08/15 05:05:45;;;;;;;1.42;0.47;;;;;;;21.29;58.22;100044.28;5054365;28;20027;-61
2021/08/15 05:08:10;;;;;;;1.08;0.57;;;;;;;21.30;57.44;100037.78;5053977;28;20493;-62
2021/08/15 05:10:36;;;;;;;1.23;0.50;;;;;;;21.35;57.11;100044.53;5054131;28;20029;-61
2021/08/15 05:13:02;;;;;;;0.95;0.32;;;;;;;21.28;58.03;100039.88;5053921;28;20037;-61
2021/08/15 05:15:28;;;;;;;1.77;0.50;;;;;;;21.24;57.75;100044.09;5054488;28;20025;-61
2021/08/15 05:17:53;;;;;;;0.80;0.20;;;;;;;21.20;58.32;100053.72;5053742;28;20021;-61
2021/08/15 05:20:19;;;;;;;4.40;0.88;;;;;;;21.17;56.23;100043.22;5054471;28;20120;-60
2021/08/15 05:22:44;;;;;;;1.38;0.40;;;;;;;21.07;56.64;100059.19;5053620;28;20108;-61
2021/08/15 05:25:10;;;;;;;2.45;0.80;;;;;;;21.10;56.96;100047.81;5054223;28;20148;-61
2021/08/15 05:27:35;;;;;;;1.25;0.40;;;;;;;21.02;57.23;100057.06;5053821;28;20047;-62
2021/08/15 05:30:01;;;;;;;2.85;0.68;;;;;;;21.04;56.40;100048.66;5053809;28;20506;-61
2021/08/15 05:32:26;;;;;;;1.60;0.50;;;;;;;20.98;56.40;100055.78;5053733;28;20036;-61
2021/08/15 05:34:52;;;;;;;1.45;0.60;;;;;;;21.01;56.36;100063.59;5053498;28;20029;-61
2021/08/15 05:37:17;;;;;;;2.25;0.60;;;;;;;20.98;56.46;100060.41;5054321;28;20458;-61
2021/08/15 05:39:43;;;;;;;1.83;0.43;;;;;;;21.00;56.34;100055.59;5052759;28;20025;-61
2021/08/15 05:42:08;;;;;;;3.08;0.75;;;;;;;20.98;56.30;100041.28;5046101;28;20489;-61
2021/08/15 05:44:33;;;;;;;1.35;0.50;;;;;;;20.97;56.21;100047.78;5053605;28;20492;-61
2021/08/15 05:46:59;;;;;;;2.75;0.40;;;;;;;20.97;56.30;100047.78;5053314;28;20544;-61
2021/08/15 05:49:24;;;;;;;1.95;0.45;;;;;;;20.91;55.90;100038.56;5053370;28;20020;-61
2021/08/15 05:51:49;;;;;;;1.58;0.50;;;;;;;20.93;55.55;100035.59;5043878;28;20025;-61
2021/08/15 05:54:15;;;;;;;1.45;0.80;;;;;;;20.93;55.64;100041.06;5034042;28;20033;-61
2021/08/15 05:56:40;;;;;;;1.60;0.50;;;;;;;20.89;54.95;100039.81;5033163;28;20053;-61
2021/08/15 05:59:05;;;;;;;3.20;0.98;;;;;;;20.91;55.78;100038.56;5033246;28;20101;-61
2021/08/15 06:01:33;;;;;;;2.13;0.60;;;;;;;20.93;56.48;100032.88;5033543;28;20025;-61
2021/08/15 06:04:00;;;;;;;1.98;0.80;;;;;;;20.86;55.85;100034.78;5033365;28;20037;-62
2021/08/15 06:06:26;;;;;;;1.73;1.02;;;;;;;20.88;56.32;100038.97;5033255;28;20021;-61
2021/08/15 06:08:51;;;;;;;2.30;0.57;;;;;;;20.93;56.33;100032.88;5032791;28;20053;-61
2021/08/15 06:11:16;;;;;;;2.28;0.60;;;;;;;20.92;55.56;100039.38;5033327;28;20029;-61
2021/08/15 06:13:42;;;;;;;2.47;0.82;;;;;;;20.96;55.11;100038.75;5033219;28;20026;-61
2021/08/15 06:16:07;;;;;;;0.80;0.50;;;;;;;20.98;55.56;100027.63;5033102;28;20029;-61
2021/08/15 06:18:33;;;;;;;1.45;0.50;;;;;;;20.90;55.58;100028.66;5033125;28;20020;-61
2021/08/15 06:20:58;;;;;;;1.95;0.50;;;;;;;20.93;55.47;100030.16;5033469;28;20029;-61
2021/08/15 06:23:23;;;;;;;1.38;0.40;;;;;;;20.92;56.24;100023.84;5033070;28;20032;-61
2021/08/15 06:25:49;;;;;;;1.13;0.45;;;;;;;20.95;56.33;100022.56;5033143;28;20466;-61
2021/08/15 06:28:14;;;;;;;1.08;0.30;;;;;;;20.91;56.16;100029.50;5032705;28;20021;-61
2021/08/15 06:30:39;;;;;;;2.40;0.50;;;;;;;20.94;55.40;100016.28;5033193;28;20022;-62
2021/08/15 06:33:05;;;;;;;2.55;1.00;;;;;;;20.92;56.18;100014.81;5032864;28;20028;-61
2021/08/15 06:35:31;;;;;;;0.82;0.35;;;;;;;20.92;56.07;100017.53;5032304;28;20498;-61
2021/08/15 06:37:56;;;;;;;2.00;0.60;;;;;;;20.95;55.34;100022.56;5032898;28;20409;-61
2021/08/15 06:40:24;;;;;;;1.65;0.68;;;;;;;20.96;55.09;100021.53;5032976;28;20068;-61
2021/08/15 06:42:50;;;;;;;2.20;0.45;;;;;;;20.89;56.48;100021.53;5032960;28;20052;-62
2021/08/15 06:45:18;;;;;;;3.42;0.40;;;;;;;20.95;54.85;100025.31;5049641;28;20461;-60
2021/08/15 06:47:43;;;;;;;2.08;1.10;;;;;;;20.96;55.25;100024.25;5072593;28;20042;-62
2021/08/15 06:50:09;;;;;;;2.55;0.55;;;;;;;20.94;54.94;100018.16;5072921;28;20020;-61
2021/08/15 06:52:34;;;;;;;1.75;0.82;;;;;;;20.93;55.31;100016.47;5072536;28;20052;-61
2021/08/15 06:55:01;;;;;;;3.17;0.40;;;;;;;20.95;55.46;100011.66;5072630;28;20528;-61
2021/08/15 06:57:27;;;;;;;2.25;0.57;;;;;;;20.94;55.58;100007.22;5070749;28;20503;-61
2021/08/15 06:59:52;;;;;;;2.40;0.52;;;;;;;20.89;56.02;100007.03;5070108;28;20036;-62
2021/08/15 07:02:18;;;;;;;2.42;0.55;;;;;;;20.93;55.43;100008.28;5070933;28;20031;-61
2021/08/15 07:04:43;;;;;;;1.48;0.43;;;;;;;20.93;55.71;100019.22;5066339;28;20018;-62
2021/08/15 07:07:09;;;;;;;2.08;0.50;;;;;;;21.00;55.05;100014.63;5033404;28;20025;-61
2021/08/15 07:09:34;;;;;;;1.40;0.40;;;;;;;20.96;56.23;100008.72;5031955;28;20045;-62
2021/08/15 07:11:59;;;;;;;1.23;0.47;;;;;;;20.97;55.42;100020.47;5031159;28;20029;-61
2021/08/15 07:14:25;;;;;;;1.73;0.82;;;;;;;20.90;54.76;100000.50;5032687;28;20033;-62
2021/08/15 07:16:51;;;;;;;3.38;0.80;;;;;;;20.90;55.40;100003.25;5032890;28;20031;-62
2021/08/15 07:19:16;;;;;;;2.05;0.40;;;;;;;20.95;55.03;100004.28;5074995;28;20016;-62
2021/08/15 07:21:41;;;;;;;1.23;0.20;;;;;;;20.96;54.87;99996.94;5076009;28;20523;-62
2021/08/15 07:24:07;;;;;;;2.28;0.65;;;;;;;20.97;56.16;100001.34;5075732;28;20021;-62
2021/08/15 07:26:32;;;;;;;1.30;0.40;;;;;;;20.88;55.89;100011.66;5076139;28;20054;-61
2021/08/15 07:28:57;;;;;;;1.42;0.22;;;;;;;20.96;55.69;100007.88;5075691;28;20033;-62
2021/08/15 07:31:23;;;;;;;1.17;0.50;;;;;;;20.93;55.29;100000.09;5075865;28;20385;-62
2021/08/15 07:33:48;;;;;;;2.70;0.60;;;;;;;20.95;55.96;100007.03;5075465;28;20047;-62
2021/08/15 07:36:13;;;;;;;1.50;0.40;;;;;;;20.97;54.93;100006.81;5075778;28;20028;-62
2021/08/15 07:38:39;;;;;;;1.77;0.52;;;;;;;20.99;55.66;100018.38;5075899;28;20025;-61
2021/08/15 07:41:04;;;;;;;1.60;0.30;;;;;;;20.96;56.30;100016.91;5075372;28;20043;-62
2021/08/15 07:43:30;;;;;;;0.90;0.35;;;;;;;20.92;55.27;100006.59;5075835;28;20607;-62
2021/08/15 07:45:57;;;;;;;1.75;0.40;;;;;;;20.93;55.71;100003.66;5048653;28;20025;-62
2021/08/15 07:48:23;;;;;;;1.38;0.40;;;;;;;20.92;54.93;100006.59;5034428;28;20036;-62
2021/08/15 07:50:52;;;;;;;1.95;0.55;;;;;;;20.97;55.76;100004.09;5035603;28;20021;-62
2021/08/15 07:53:21;;;;;;;3.28;0.60;;;;;;;20.96;55.30;100008.72;5035841;28;20036;-62
2021/08/15 07:55:48;;;;;;;1.60;0.40;;;;;;;20.92;55.49;100012.06;5035291;28;20041;-62
2021/08/15 07:58:14;;;;;;;3.22;0.73;;;;;;;20.94;55.68;100015.44;5035312;28;20470;-62
2021/08/15 08:00:39;;;;;;;1.27;0.35;;;;;;;20.96;55.32;100021.53;5035643;28;20025;-62
2021/08/15 08:03:05;;;;;;;2.58;0.50;;;;;;;20.96;55.50;100022.38;5035294;28;20029;-61
2021/08/15 08:05:32;;;;;;;2.72;1.13;;;;;;;21.01;55.99;100013.56;5035826;28;20087;-61
2021/08/15 08:07:57;;;;;;;2.88;0.43;;;;;;;21.00;55.06;100014.63;5035149;28;20033;-62
2021/08/15 08:10:22;;;;;;;3.50;0.90;;;;;;;20.97;55.33;100015.00;5035225;28;20021;-61
2021/08/15 08:12:48;;;;;;;2.25;0.65;;;;;;;20.96;56.16;100018.78;5034982;28;20466;-62
2021/08/15 08:15:13;;;;;;;1.58;0.55;;;;;;;20.99;54.78;100012.91;5034949;28;20518;-61
2021/08/15 08:17:39;;;;;;;2.47;0.57;;;;;;;20.99;55.25;100023.84;5035980;28;20053;-61
2021/08/15 08:20:05;;;;;;;1.48;0.43;;;;;;;21.00;54.87;100025.56;5034736;28;20029;-61
2021/08/15 08:22:30;;;;;;;1.77;0.30;;;;;;;20.97;55.83;100034.13;5033886;28;20056;-61
2021/08/15 08:24:55;;;;;;;0.88;0.30;;;;;;;20.95;55.80;100028.03;5034856;28;20094;-62
2021/08/15 08:27:21;;;;;;;1.88;0.30;;;;;;;21.00;56.44;100041.94;5035073;28;20470;-62
2021/08/15 08:29:47;;;;;;;1.02;0.43;;;;;;;20.94;54.36;100026.34;5033513;28;20036;-62
2021/08/15 08:32:13;;;;;;;2.38;0.50;;;;;;;20.99;55.06;100026.56;5063345;28;20028;-62
2021/08/15 08:34:38;;;;;;;2.17;0.63;;;;;;;20.98;56.22;100042.13;5074467;28;20403;-62
2021/08/15 08:37:04;;;;;;;2.25;0.47;;;;;;;21.02;55.18;100040.69;5056745;28;20029;-62
2021/08/15 08:39:30;;;;;;;2.30;0.60;;;;;;;21.00;55.50;100048.25;5074685;28;20472;-62
2021/08/15 08:41:59;;;;;;;2.05;0.40;;;;;;;21.01;56.07;100032.69;5074263;28;20032;-62
2021/08/15 08:44:26;;;;;;;1.02;0.40;;;;;;;20.98;56.40;100046.75;5072359;28;20538;-62
2021/08/15 08:46:51;;;;;;;3.20;0.50;;;;;;;21.02;55.88;100042.56;5042526;28;20021;-61
2021/08/15 08:49:17;;;;;;;2.03;0.47;;;;;;;20.96;56.60;100046.13;5047027;28;20036;-62
2021/08/15 08:51:45;;;;;;;3.20;0.60;;;;;;;21.00;55.19;100050.13;5054529;28;20024;-62
2021/08/15 08:54:11;;;;;;;2.20;0.55;;;;;;;20.98;55.11;100044.00;5054145;28;20398;-61
2021/08/15 08:56:37;;;;;;;1.67;0.32;;;;;;;21.06;55.37;100053.91;5053832;28;20098;-61
2021/08/15 08:59:02;;;;;;;0.52;0.25;;;;;;;20.97;56.65;100053.25;5054154;28;20029;-61
2021/08/15 09:01:27;;;;;;;1.23;0.40;;;;;;;21.00;56.82;100056.44;5054975;28;20052;-62
2021/08/15 09:03:54;;;;;;;2.00;0.50;;;;;;;21.03;55.47;100055.19;5036531;28;20028;-62
2021/08/15 09:06:21;;;;;;;1.38;0.50;;;;;;;21.03;55.46;100044.25;5054220;28;20470;-62
2021/08/15 09:08:47;;;;;;;0.35;0.20;;;;;;;21.00;55.51;100052.88;5053708;28;20512;-62
2021/08/15 09:11:16;;;;;;;2.67;0.50;;;;;;;21.00;55.10;100052.88;5053997;28;20071;-62
2021/08/15 09:13:43;;;;;;;1.42;0.38;;;;;;;21.00;55.93;100052.88;5053974;28;20029;-61
2021/08/15 09:16:08;;;;;;;1.23;0.40;;;;;;;20.96;55.30;100046.13;5054052;28;20024;-62
2021/08/15 09:18:34;;;;;;;2.65;0.63;;;;;;;20.97;55.26;100056.00;5053958;28;20021;-62
2021/08/15 09:20:59;;;;;;;0.93;0.40;;;;;;;20.97;55.58;100043.19;5053763;28;20036;-61
2021/08/15 09:23:31;;;;;;;1.70;0.50;;;;;;;20.98;56.37;100044.00;5053668;28;20029;-62
2021/08/15 09:26:17;;;;;;;3.05;0.50;;;;;;;20.98;55.63;100039.38;5053554;28;20393;-62
2021/08/15 09:28:44;;;;;;;2.47;0.50;;;;;;;20.99;55.06;100045.69;5054231;28;20032;-61
2021/08/15 09:31:24;;;;;;;2.17;0.82;;;;;;;20.99;55.83;100053.88;5053822;28;20028;-61
2021/08/15 09:33:54;;;;;;;2.50;0.55;;;;;;;20.98;56.03;100054.94;5053497;28;20032;-61
2021/08/15 09:36:34;;;;;;;1.50;0.50;;;;;;;21.03;55.80;100047.81;5053444;28;20469;-63
2021/08/15 09:39:03;;;;;;;2.58;0.30;;;;;;;20.96;55.58;100051.59;5053477;28;20104;-62
2021/08/15 09:41:31;;;;;;;4.82;0.77;;;;;;;21.03;56.66;100055.19;5052645;28;20056;-63
2021/08/15 09:44:20;;;;;;;1.05;0.75;;;;;;;20.96;55.50;100046.13;5053245;28;20537;-62
2021/08/15 09:47:12;;;;;;;2.58;0.60;;;;;;;20.98;56.02;100060.41;5033434;28;20117;-62
2021/08/15 09:49:42;;;;;;;1.73;0.38;;;;;;;20.95;56.37;100060.81;5033363;28;20027;-61
2021/08/15 09:52:12;;;;;;;2.03;0.35;;;;;;;20.98;55.19;100063.13;5033010;28;20025;-61
2021/08/15 09:54:53;;;;;;;2.30;0.40;;;;;;;20.97;55.29;100058.72;5034715;28;20030;-62
2021/08/15 09:57:34;;;;;;;1.60;0.65;;;;;;;21.02;56.54;100061.69;5033007;28;20486;-62
2021/08/15 10:00:00;;;;;;;2.22;0.57;;;;;;;21.01;55.81;100040.91;5044853;28;20021;-62
2021/08/15 10:02:27;;;;;;;1.98;0.30;;;;;;;20.97;55.65;100056.84;5053305;28;20039;-62
2021/08/15 10:04:56;;;;;;;1.02;0.38;;;;;;;21.02;55.06;100072.63;5052724;28;20044;-62
2021/08/15 10:07:21;;;;;;;1.20;0.68;;;;;;;21.03;55.97;100068.84;5053303;28;20426;-62
2021/08/15 10:09:47;;;;;;;2.00;0.38;;;;;;;21.04;56.46;100070.53;5053751;28;20025;-62
2021/08/15 10:12:13;;;;;;;3.53;0.85;;;;;;;20.99;55.87;100062.94;5052706;28;20418;-62
2021/08/15 10:14:38;;;;;;;2.88;0.80;;;;;;;21.01;55.65;100070.94;5053231;28;20064;-62
2021/08/15 10:17:10;;;;;;;0.98;0.40;;;;;;;21.05;55.78;100072.22;5052743;28;20079;-62
2021/08/15 10:19:38;;;;;;;1.45;0.43;;;;;;;20.98;56.13;100072.19;5052859;28;20055;-62
2021/08/15 10:22:03;;;;;;;2.85;0.43;;;;;;;21.01;55.82;100070.94;5032942;28;20071;-62
2021/08/15 10:24:51;;;;;;;2.47;0.50;;;;;;;21.02;55.41;100072.63;5032871;28;20351;-62
2021/08/15 10:27:41;;;;;;;1.05;0.75;;;;;;;21.03;55.57;100075.16;5033177;28;20052;-62
2021/08/15 10:30:12;;;;;;;1.85;0.50;;;;;;;21.02;55.66;100078.09;5033104;28;20025;-62
2021/08/15 10:32:38;;;;;;;1.55;0.55;;;;;;;21.01;56.07;100074.53;5033043;28;20039;-62
2021/08/15 10:35:03;;;;;;;1.00;0.22;;;;;;;20.99;56.47;100067.56;5032665;28;20474;-62
2021/08/15 10:37:34;;;;;;;1.42;0.30;;;;;;;21.01;55.58;100070.94;5033360;28;20104;-62
2021/08/15 10:40:04;;;;;;;1.77;0.40;;;;;;;20.97;55.74;100070.50;5032617;28;20100;-62
2021/08/15 10:42:38;;;;;;;2.90;0.60;;;;;;;20.98;55.42;100066.72;5033117;28;20025;-62
2021/08/15 10:45:26;;;;;;;3.17;0.55;;;;;;;21.02;55.67;100064.44;5045250;28;20025;-62
2021/08/15 10:48:10;;;;;;;2.22;0.30;;;;;;;21.03;55.57;100074.31;5072832;28;20373;-62
2021/08/15 10:50:43;;;;;;;2.38;0.40;;;;;;;21.06;55.90;100079.34;5072518;28;20025;-62
2021/08/15 10:53:29;;;;;;;3.83;0.57;;;;;;;20.99;55.90;100079.31;5074755;28;20028;-62
2021/08/15 10:56:07;;;;;;;1.63;0.25;;;;;;;21.02;56.66;100083.56;5076170;28;20040;-62
2021/08/15 10:58:41;;;;;;;4.00;0.75;;;;;;;21.03;55.50;100091.53;5076414;28;20070;-62
2021/08/15 11:01:12;;;;;;;2.42;0.50;;;;;;;21.00;56.51;100085.66;5076402;28;20035;-62
2021/08/15 11:03:46;;;;;;;3.10;0.47;;;;;;;20.96;55.02;100089.84;5076418;28;20051;-62
2021/08/15 11:06:29;;;;;;;4.00;0.63;;;;;;;21.01;55.31;100098.28;5076623;28;20027;-62
2021/08/15 11:08:56;;;;;;;2.05;0.75;;;;;;;21.01;55.01;100092.81;5076057;28;20078;-62
2021/08/15 11:11:25;;;;;;;1.45;0.40;;;;;;;20.99;55.24;100105.81;5076302;28;20048;-61
2021/08/15 11:14:19;;;;;;;3.17;0.45;;;;;;;20.96;55.53;100100.75;5073045;28;20039;-62
2021/08/15 11:16:45;;;;;;;1.50;0.25;;;;;;;21.00;55.38;100107.53;5038848;28;20442;-62
2021/08/15 11:19:10;;;;;;;2.67;0.50;;;;;;;21.03;55.37;100107.09;5056550;28;20021;-62
2021/08/15 11:22:14;;;;;;;0.98;0.35;;;;;;;21.07;54.76;100108.38;5055928;28;20556;-62
2021/08/15 11:24:46;;;;;;;2.35;0.57;;;;;;;21.02;55.79;100108.16;5055992;28;20462;-61